sensor_id;sensor_type;location;lat;lon;timestamp;temperature;humidity
6164;DHT22;3114;48.362;10.994;2022-11-15T00:01:24;8.60;99.90
6164;DHT22;3114;48.362;10.994;2022-11-15T00:03:51;8.70;99.90
6164;DHT22;3114;48.362;10.994;2022-11-15T00:06:19;8.50;99.90
6164;DHT22;3114;48.362;10.994;2022-11-15T00:08:46;8.40;99.90
6164;DHT22;3114;48.362;10.994;2022-11-15T00:11:15;8.50;99.90
6164;DHT22;3114;48.362;10.994;2022-11-15T00:13:42;8.40;99.90
6164;DHT22;3114;48.362;10.994;2022-11-15T00:16:09;8.30;99.90
6164;DHT22;3114;48.362;10.994;2022-11-15T00:18:37;8.40;99.90
6164;DHT22;3114;48.362;10.994;2022-11-15T00:21:06;8.40;99.90
6164;DHT22;3114;48.362;10.994;2022-11-15T00:23:35;8.50;99.90
6164;DHT22;3114;48.362;10.994;2022-11-15T00:26:01;8.30;99.90
6164;DHT22;3114;48.362;10.994;2022-11-15T00:28:28;8.20;99.90
6164;DHT22;3114;48.362;10.994;2022-11-15T00:31:00;8.30;99.90
6164;DHT22;3114;48.362;10.994;2022-11-15T00:33:27;8.80;99.90
6164;DHT22;3114;48.362;10.994;2022-11-15T00:35:59;8.30;99.90
6164;DHT22;3114;48.362;10.994;2022-11-15T00:38:31;8.40;99.90
6164;DHT22;3114;48.362;10.994;2022-11-15T00:41:02;8.30;99.90
6164;DHT22;3114;48.362;10.994;2022-11-15T00:43:29;8.40;99.90
6164;DHT22;3114;48.362;10.994;2022-11-15T00:45:56;8.20;99.90
6164;DHT22;3114;48.362;10.994;2022-11-15T00:48:23;8.20;99.90
6164;DHT22;3114;48.362;10.994;2022-11-15T00:50:55;8.20;99.90
6164;DHT22;3114;48.362;10.994;2022-11-15T00:53:22;8.30;99.90
6164;DHT22;3114;48.362;10.994;2022-11-15T00:55:49;8.30;99.90
6164;DHT22;3114;48.362;10.994;2022-11-15T00:58:18;8.20;99.90
6164;DHT22;3114;48.362;10.994;2022-11-15T01:00:45;8.20;99.90
6164;DHT22;3114;48.362;10.994;2022-11-15T01:03:12;8.20;99.90
6164;DHT22;3114;48.362;10.994;2022-11-15T01:05:40;7.60;99.90
6164;DHT22;3114;48.362;10.994;2022-11-15T01:08:12;7.70;99.90
6164;DHT22;3114;48.362;10.994;2022-11-15T01:10:39;8.20;65.10
6164;DHT22;3114;48.362;10.994;2022-11-15T01:13:06;8.40;99.90
6164;DHT22;3114;48.362;10.994;2022-11-15T01:15:38;8.10;99.90
6164;DHT22;3114;48.362;10.994;2022-11-15T01:18:05;8.00;99.90
6164;DHT22;3114;48.362;10.994;2022-11-15T01:20:32;8.00;99.90
6164;DHT22;3114;48.362;10.994;2022-11-15T01:22:59;8.00;99.90
6164;DHT22;3114;48.362;10.994;2022-11-15T01:25:25;7.90;99.90
6164;DHT22;3114;48.362;10.994;2022-11-15T01:27:52;8.10;99.90
6164;DHT22;3114;48.362;10.994;2022-11-15T01:30:19;8.10;99.90
6164;DHT22;3114;48.362;10.994;2022-11-15T01:32:47;8.00;99.90
6164;DHT22;3114;48.362;10.994;2022-11-15T01:35:14;9.00;99.90
6164;DHT22;3114;48.362;10.994;2022-11-15T01:37:41;8.10;99.90
6164;DHT22;3114;48.362;10.994;2022-11-15T01:40:09;8.10;99.90
6164;DHT22;3114;48.362;10.994;2022-11-15T01:42:37;8.10;99.90
6164;DHT22;3114;48.362;10.994;2022-11-15T01:45:06;8.00;99.90
6164;DHT22;3114;48.362;10.994;2022-11-15T01:47:36;7.90;99.90
6164;DHT22;3114;48.362;10.994;2022-11-15T01:50:11;7.40;99.90
6164;DHT22;3114;48.362;10.994;2022-11-15T01:52:39;8.00;1.00
6164;DHT22;3114;48.362;10.994;2022-11-15T01:55:09;8.00;99.90
6164;DHT22;3114;48.362;10.994;2022-11-15T01:57:38;8.70;99.90
6164;DHT22;3114;48.362;10.994;2022-11-15T02:00:07;8.00;99.90
6164;DHT22;3114;48.362;10.994;2022-11-15T02:02:36;7.90;99.90
6164;DHT22;3114;48.362;10.994;2022-11-15T02:05:06;8.20;99.90
6164;DHT22;3114;48.362;10.994;2022-11-15T02:07:37;7.90;99.90
6164;DHT22;3114;48.362;10.994;2022-11-15T02:10:08;8.10;99.90
6164;DHT22;3114;48.362;10.994;2022-11-15T02:12:35;7.90;99.90
6164;DHT22;3114;48.362;10.994;2022-11-15T02:15:06;7.90;99.90
6164;DHT22;3114;48.362;10.994;2022-11-15T02:17:48;7.90;99.90
6164;DHT22;3114;48.362;10.994;2022-11-15T02:20:39;8.00;1.00
6164;DHT22;3114;48.362;10.994;2022-11-15T02:29:36;8.00;99.90
6164;DHT22;3114;48.362;10.994;2022-11-15T02:32:16;9.20;1.00
6164;DHT22;3114;48.362;10.994;2022-11-15T02:34:50;8.10;1.00
6164;DHT22;3114;48.362;10.994;2022-11-15T02:37:26;8.20;1.00
6164;DHT22;3114;48.362;10.994;2022-11-15T02:40:01;8.10;1.00
6164;DHT22;3114;48.362;10.994;2022-11-15T02:42:33;7.90;1.00
6164;DHT22;3114;48.362;10.994;2022-11-15T02:45:21;8.80;1.00
6164;DHT22;3114;48.362;10.994;2022-11-15T02:47:53;7.90;1.00
6164;DHT22;3114;48.362;10.994;2022-11-15T02:50:24;8.50;1.00
6164;DHT22;3114;48.362;10.994;2022-11-15T02:52:52;8.20;1.00
6164;DHT22;3114;48.362;10.994;2022-11-15T02:55:27;8.20;1.00
6164;DHT22;3114;48.362;10.994;2022-11-15T02:58:06;8.30;99.90
6164;DHT22;3114;48.362;10.994;2022-11-15T03:00:43;8.60;99.90
6164;DHT22;3114;48.362;10.994;2022-11-15T03:03:29;7.80;99.90
6164;DHT22;3114;48.362;10.994;2022-11-15T03:06:03;10.10;99.90
6164;DHT22;3114;48.362;10.994;2022-11-15T03:08:42;7.90;99.90
6164;DHT22;3114;48.362;10.994;2022-11-15T03:11:14;7.90;99.90
6164;DHT22;3114;48.362;10.994;2022-11-15T03:13:47;7.50;99.90
6164;DHT22;3114;48.362;10.994;2022-11-15T03:16:22;7.30;99.90
6164;DHT22;3114;48.362;10.994;2022-11-15T03:18:56;7.60;99.90
6164;DHT22;3114;48.362;10.994;2022-11-15T03:21:24;7.50;99.90
6164;DHT22;3114;48.362;10.994;2022-11-15T03:23:56;7.20;99.90
6164;DHT22;3114;48.362;10.994;2022-11-15T03:26:25;7.50;99.90
6164;DHT22;3114;48.362;10.994;2022-11-15T03:28:55;7.40;99.90
6164;DHT22;3114;48.362;10.994;2022-11-15T03:31:26;7.20;99.90
6164;DHT22;3114;48.362;10.994;2022-11-15T03:34:19;7.30;99.90
6164;DHT22;3114;48.362;10.994;2022-11-15T03:36:47;7.80;99.90
6164;DHT22;3114;48.362;10.994;2022-11-15T03:39:14;7.20;99.90
6164;DHT22;3114;48.362;10.994;2022-11-15T03:41:46;7.80;99.90
6164;DHT22;3114;48.362;10.994;2022-11-15T03:44:20;7.20;99.90
6164;DHT22;3114;48.362;10.994;2022-11-15T03:46:52;7.30;99.90
6164;DHT22;3114;48.362;10.994;2022-11-15T03:49:34;7.20;99.90
6164;DHT22;3114;48.362;10.994;2022-11-15T03:52:02;7.30;99.90
6164;DHT22;3114;48.362;10.994;2022-11-15T03:54:30;7.10;99.90
6164;DHT22;3114;48.362;10.994;2022-11-15T03:56:57;7.20;99.90
6164;DHT22;3114;48.362;10.994;2022-11-15T03:59:24;7.20;99.90
6164;DHT22;3114;48.362;10.994;2022-11-15T04:01:51;8.00;99.90
6164;DHT22;3114;48.362;10.994;2022-11-15T04:04:17;7.00;99.90
6164;DHT22;3114;48.362;10.994;2022-11-15T04:06:46;7.30;99.90
6164;DHT22;3114;48.362;10.994;2022-11-15T04:09:12;7.30;99.90
6164;DHT22;3114;48.362;10.994;2022-11-15T04:11:39;8.20;99.90
6164;DHT22;3114;48.362;10.994;2022-11-15T04:14:06;7.30;99.90
6164;DHT22;3114;48.362;10.994;2022-11-15T04:16:33;7.30;99.90
6164;DHT22;3114;48.362;10.994;2022-11-15T04:19:00;7.10;99.90
6164;DHT22;3114;48.362;10.994;2022-11-15T04:21:45;7.30;99.90
6164;DHT22;3114;48.362;10.994;2022-11-15T04:24:29;7.70;99.90
6164;DHT22;3114;48.362;10.994;2022-11-15T04:26:56;7.10;99.90
6164;DHT22;3114;48.362;10.994;2022-11-15T04:29:23;7.00;99.90
6164;DHT22;3114;48.362;10.994;2022-11-15T04:32:02;7.70;99.90
6164;DHT22;3114;48.362;10.994;2022-11-15T04:34:29;7.20;99.90
6164;DHT22;3114;48.362;10.994;2022-11-15T04:36:58;7.20;5.80
6164;DHT22;3114;48.362;10.994;2022-11-15T04:39:42;7.20;99.90
6164;DHT22;3114;48.362;10.994;2022-11-15T04:42:10;6.90;99.90
6164;DHT22;3114;48.362;10.994;2022-11-15T04:44:37;7.00;99.90
6164;DHT22;3114;48.362;10.994;2022-11-15T04:47:04;7.50;99.90
6164;DHT22;3114;48.362;10.994;2022-11-15T04:49:31;6.80;99.90
6164;DHT22;3114;48.362;10.994;2022-11-15T04:52:00;7.00;99.90
6164;DHT22;3114;48.362;10.994;2022-11-15T04:54:27;6.90;99.90
6164;DHT22;3114;48.362;10.994;2022-11-15T04:56:53;6.90;99.90
6164;DHT22;3114;48.362;10.994;2022-11-15T04:59:23;6.70;99.90
6164;DHT22;3114;48.362;10.994;2022-11-15T05:01:50;6.80;99.90
6164;DHT22;3114;48.362;10.994;2022-11-15T05:04:17;7.00;99.90
6164;DHT22;3114;48.362;10.994;2022-11-15T05:06:47;7.00;99.90
6164;DHT22;3114;48.362;10.994;2022-11-15T05:09:16;6.90;99.90
6164;DHT22;3114;48.362;10.994;2022-11-15T05:11:43;6.90;99.90
6164;DHT22;3114;48.362;10.994;2022-11-15T05:14:10;6.80;99.90
6164;DHT22;3114;48.362;10.994;2022-11-15T05:16:37;6.70;99.90
6164;DHT22;3114;48.362;10.994;2022-11-15T05:19:05;6.80;99.90
6164;DHT22;3114;48.362;10.994;2022-11-15T05:21:33;6.70;99.90
6164;DHT22;3114;48.362;10.994;2022-11-15T05:24:00;6.60;99.90
6164;DHT22;3114;48.362;10.994;2022-11-15T05:26:28;7.20;99.90
6164;DHT22;3114;48.362;10.994;2022-11-15T05:28:56;6.90;99.90
6164;DHT22;3114;48.362;10.994;2022-11-15T05:31:24;6.70;99.90
6164;DHT22;3114;48.362;10.994;2022-11-15T05:33:52;6.80;99.90
6164;DHT22;3114;48.362;10.994;2022-11-15T05:36:26;7.10;99.90
6164;DHT22;3114;48.362;10.994;2022-11-15T05:38:54;7.10;22.70
6164;DHT22;3114;48.362;10.994;2022-11-15T05:41:25;6.90;99.90
6164;DHT22;3114;48.362;10.994;2022-11-15T05:43:55;6.90;99.90
6164;DHT22;3114;48.362;10.994;2022-11-15T05:46:22;6.90;99.90
6164;DHT22;3114;48.362;10.994;2022-11-15T05:48:50;6.80;99.90
6164;DHT22;3114;48.362;10.994;2022-11-15T05:51:17;8.30;99.90
6164;DHT22;3114;48.362;10.994;2022-11-15T05:53:46;6.90;99.90
6164;DHT22;3114;48.362;10.994;2022-11-15T05:56:14;6.70;99.90
6164;DHT22;3114;48.362;10.994;2022-11-15T05:58:42;6.90;99.90
6164;DHT22;3114;48.362;10.994;2022-11-15T06:01:10;7.00;99.90
6164;DHT22;3114;48.362;10.994;2022-11-15T06:03:38;7.00;99.90
6164;DHT22;3114;48.362;10.994;2022-11-15T06:06:06;6.90;99.90
6164;DHT22;3114;48.362;10.994;2022-11-15T06:08:33;7.00;99.90
6164;DHT22;3114;48.362;10.994;2022-11-15T06:11:04;6.90;99.90
6164;DHT22;3114;48.362;10.994;2022-11-15T06:13:31;6.80;99.90
6164;DHT22;3114;48.362;10.994;2022-11-15T06:15:58;7.20;99.90
6164;DHT22;3114;48.362;10.994;2022-11-15T06:18:28;6.90;99.90
6164;DHT22;3114;48.362;10.994;2022-11-15T06:20:58;6.80;99.90
6164;DHT22;3114;48.362;10.994;2022-11-15T06:23:26;7.00;99.90
6164;DHT22;3114;48.362;10.994;2022-11-15T06:25:53;6.80;99.90
6164;DHT22;3114;48.362;10.994;2022-11-15T06:28:20;6.90;99.90
6164;DHT22;3114;48.362;10.994;2022-11-15T06:30:47;6.90;29.50
6164;DHT22;3114;48.362;10.994;2022-11-15T06:33:14;8.80;99.90
6164;DHT22;3114;48.362;10.994;2022-11-15T06:35:42;7.20;99.90
6164;DHT22;3114;48.362;10.994;2022-11-15T06:38:10;6.90;99.90
6164;DHT22;3114;48.362;10.994;2022-11-15T06:40:38;6.80;99.90
6164;DHT22;3114;48.362;10.994;2022-11-15T06:43:06;6.80;99.90
6164;DHT22;3114;48.362;10.994;2022-11-15T06:45:33;6.80;99.90
6164;DHT22;3114;48.362;10.994;2022-11-15T06:48:00;6.90;99.90
6164;DHT22;3114;48.362;10.994;2022-11-15T06:50:27;6.90;99.90
6164;DHT22;3114;48.362;10.994;2022-11-15T06:52:55;6.70;99.90
6164;DHT22;3114;48.362;10.994;2022-11-15T06:55:26;6.90;99.90
6164;DHT22;3114;48.362;10.994;2022-11-15T06:57:53;6.90;99.90
6164;DHT22;3114;48.362;10.994;2022-11-15T07:00:21;6.80;99.90
6164;DHT22;3114;48.362;10.994;2022-11-15T07:02:48;6.70;99.90
6164;DHT22;3114;48.362;10.994;2022-11-15T07:05:16;6.80;99.90
6164;DHT22;3114;48.362;10.994;2022-11-15T07:07:43;6.70;99.90
6164;DHT22;3114;48.362;10.994;2022-11-15T07:10:13;7.10;99.90
6164;DHT22;3114;48.362;10.994;2022-11-15T07:12:41;6.70;99.90
6164;DHT22;3114;48.362;10.994;2022-11-15T07:15:09;7.10;99.90
6164;DHT22;3114;48.362;10.994;2022-11-15T07:17:36;6.80;99.90
6164;DHT22;3114;48.362;10.994;2022-11-15T07:20:04;6.90;99.90
6164;DHT22;3114;48.362;10.994;2022-11-15T07:22:31;6.90;99.90
6164;DHT22;3114;48.362;10.994;2022-11-15T07:24:58;6.80;99.90
6164;DHT22;3114;48.362;10.994;2022-11-15T07:27:26;7.10;99.90
6164;DHT22;3114;48.362;10.994;2022-11-15T07:29:53;7.10;99.90
6164;DHT22;3114;48.362;10.994;2022-11-15T07:32:20;6.90;99.90
6164;DHT22;3114;48.362;10.994;2022-11-15T07:34:47;6.80;99.90
6164;DHT22;3114;48.362;10.994;2022-11-15T07:37:14;6.50;99.90
6164;DHT22;3114;48.362;10.994;2022-11-15T07:39:42;6.50;99.90
6164;DHT22;3114;48.362;10.994;2022-11-15T07:42:09;6.50;99.90
6164;DHT22;3114;48.362;10.994;2022-11-15T07:44:55;6.70;99.90
6164;DHT22;3114;48.362;10.994;2022-11-15T07:47:22;6.70;61.30
6164;DHT22;3114;48.362;10.994;2022-11-15T07:49:49;6.80;99.90
6164;DHT22;3114;48.362;10.994;2022-11-15T07:52:16;6.70;99.90
6164;DHT22;3114;48.362;10.994;2022-11-15T07:54:43;6.80;99.90
6164;DHT22;3114;48.362;10.994;2022-11-15T07:57:10;7.00;1.00
6164;DHT22;3114;48.362;10.994;2022-11-15T07:59:36;7.20;1.00
6164;DHT22;3114;48.362;10.994;2022-11-15T08:02:14;7.70;1.00
6164;DHT22;3114;48.362;10.994;2022-11-15T08:04:43;7.20;1.00
6164;DHT22;3114;48.362;10.994;2022-11-15T08:07:10;7.30;1.00
6164;DHT22;3114;48.362;10.994;2022-11-15T08:09:37;7.30;1.00
6164;DHT22;3114;48.362;10.994;2022-11-15T08:12:04;7.30;1.00
6164;DHT22;3114;48.362;10.994;2022-11-15T08:14:31;7.30;99.90
6164;DHT22;3114;48.362;10.994;2022-11-15T08:17:01;7.20;1.00
6164;DHT22;3114;48.362;10.994;2022-11-15T08:19:30;7.30;1.00
6164;DHT22;3114;48.362;10.994;2022-11-15T08:21:56;7.30;99.90
6164;DHT22;3114;48.362;10.994;2022-11-15T08:24:23;7.30;99.90
6164;DHT22;3114;48.362;10.994;2022-11-15T08:26:50;7.00;99.90
6164;DHT22;3114;48.362;10.994;2022-11-15T08:29:17;7.70;99.90
6164;DHT22;3114;48.362;10.994;2022-11-15T08:31:44;7.50;99.90
6164;DHT22;3114;48.362;10.994;2022-11-15T08:34:11;7.60;99.90
6164;DHT22;3114;48.362;10.994;2022-11-15T08:36:39;7.60;99.90
6164;DHT22;3114;48.362;10.994;2022-11-15T08:39:06;7.70;99.90
6164;DHT22;3114;48.362;10.994;2022-11-15T08:41:35;7.80;99.90
6164;DHT22;3114;48.362;10.994;2022-11-15T08:44:03;7.80;99.90
6164;DHT22;3114;48.362;10.994;2022-11-15T08:46:30;7.80;99.90
6164;DHT22;3114;48.362;10.994;2022-11-15T08:48:58;7.70;99.90
6164;DHT22;3114;48.362;10.994;2022-11-15T08:51:25;7.70;99.90
6164;DHT22;3114;48.362;10.994;2022-11-15T08:53:53;8.00;99.90
6164;DHT22;3114;48.362;10.994;2022-11-15T08:56:20;7.90;99.90
6164;DHT22;3114;48.362;10.994;2022-11-15T08:58:47;7.70;99.90
6164;DHT22;3114;48.362;10.994;2022-11-15T09:01:16;8.10;1.00
6164;DHT22;3114;48.362;10.994;2022-11-15T09:03:43;8.30;99.90
6164;DHT22;3114;48.362;10.994;2022-11-15T09:06:11;8.10;99.90
6164;DHT22;3114;48.362;10.994;2022-11-15T09:08:38;8.00;99.90
6164;DHT22;3114;48.362;10.994;2022-11-15T09:11:08;8.00;1.00
6164;DHT22;3114;48.362;10.994;2022-11-15T09:13:36;8.20;99.90
6164;DHT22;3114;48.362;10.994;2022-11-15T09:16:04;8.20;99.90
6164;DHT22;3114;48.362;10.994;2022-11-15T09:18:31;8.30;1.00
6164;DHT22;3114;48.362;10.994;2022-11-15T09:20:59;8.40;99.90
6164;DHT22;3114;48.362;10.994;2022-11-15T09:23:26;8.50;1.00
6164;DHT22;3114;48.362;10.994;2022-11-15T09:25:58;8.50;99.90
6164;DHT22;3114;48.362;10.994;2022-11-15T09:28:27;9.30;99.90
6164;DHT22;3114;48.362;10.994;2022-11-15T09:30:56;8.50;99.90
6164;DHT22;3114;48.362;10.994;2022-11-15T09:33:24;8.70;99.90
6164;DHT22;3114;48.362;10.994;2022-11-15T09:35:51;8.60;99.90
6164;DHT22;3114;48.362;10.994;2022-11-15T09:38:18;8.40;99.90
6164;DHT22;3114;48.362;10.994;2022-11-15T09:40:49;8.70;99.90
6164;DHT22;3114;48.362;10.994;2022-11-15T09:43:29;8.80;99.90
6164;DHT22;3114;48.362;10.994;2022-11-15T09:46:06;8.90;1.00
6164;DHT22;3114;48.362;10.994;2022-11-15T09:48:48;8.90;99.90
6164;DHT22;3114;48.362;10.994;2022-11-15T09:51:24;9.00;99.90
6164;DHT22;3114;48.362;10.994;2022-11-15T09:54:04;9.00;99.90
6164;DHT22;3114;48.362;10.994;2022-11-15T09:56:35;9.00;99.90
6164;DHT22;3114;48.362;10.994;2022-11-15T09:59:15;8.80;99.90
6164;DHT22;3114;48.362;10.994;2022-11-15T10:01:50;8.70;99.90
6164;DHT22;3114;48.362;10.994;2022-11-15T10:04:21;9.10;99.90
6164;DHT22;3114;48.362;10.994;2022-11-15T10:06:54;9.10;99.90
6164;DHT22;3114;48.362;10.994;2022-11-15T10:09:25;9.20;99.90
6164;DHT22;3114;48.362;10.994;2022-11-15T10:11:54;9.20;99.90
6164;DHT22;3114;48.362;10.994;2022-11-15T10:14:25;9.50;99.90
6164;DHT22;3114;48.362;10.994;2022-11-15T10:17:33;10.10;99.90
6164;DHT22;3114;48.362;10.994;2022-11-15T10:20:10;9.30;99.90
6164;DHT22;3114;48.362;10.994;2022-11-15T10:22:41;9.20;99.90
6164;DHT22;3114;48.362;10.994;2022-11-15T10:25:17;9.60;99.90
6164;DHT22;3114;48.362;10.994;2022-11-15T10:27:50;9.40;99.90
6164;DHT22;3114;48.362;10.994;2022-11-15T10:30:20;9.60;1.00
6164;DHT22;3114;48.362;10.994;2022-11-15T10:32:48;9.50;99.90
6164;DHT22;3114;48.362;10.994;2022-11-15T10:35:18;9.60;1.00
6164;DHT22;3114;48.362;10.994;2022-11-15T10:37:45;9.30;99.90
6164;DHT22;3114;48.362;10.994;2022-11-15T10:40:17;9.30;1.00
6164;DHT22;3114;48.362;10.994;2022-11-15T10:42:44;9.60;99.90
6164;DHT22;3114;48.362;10.994;2022-11-15T10:45:26;9.70;99.90
6164;DHT22;3114;48.362;10.994;2022-11-15T10:47:53;9.60;99.90
6164;DHT22;3114;48.362;10.994;2022-11-15T10:50:31;9.50;99.90
6164;DHT22;3114;48.362;10.994;2022-11-15T10:52:59;9.80;99.90
6164;DHT22;3114;48.362;10.994;2022-11-15T10:55:30;9.90;99.90
6164;DHT22;3114;48.362;10.994;2022-11-15T10:58:02;10.00;99.90
6164;DHT22;3114;48.362;10.994;2022-11-15T11:00:34;10.00;99.90
6164;DHT22;3114;48.362;10.994;2022-11-15T11:03:03;10.10;1.00
6164;DHT22;3114;48.362;10.994;2022-11-15T11:05:33;10.10;99.90
6164;DHT22;3114;48.362;10.994;2022-11-15T11:08:02;10.10;99.90
6164;DHT22;3114;48.362;10.994;2022-11-15T11:10:29;10.50;99.90
6164;DHT22;3114;48.362;10.994;2022-11-15T11:13:12;10.70;99.90
6164;DHT22;3114;48.362;10.994;2022-11-15T11:15:44;10.30;99.90
6164;DHT22;3114;48.362;10.994;2022-11-15T11:18:18;10.50;99.90
6164;DHT22;3114;48.362;10.994;2022-11-15T11:20:49;10.20;99.90
6164;DHT22;3114;48.362;10.994;2022-11-15T11:23:33;10.50;99.90
6164;DHT22;3114;48.362;10.994;2022-11-15T11:26:11;10.60;99.90
6164;DHT22;3114;48.362;10.994;2022-11-15T11:28:47;10.50;99.90
6164;DHT22;3114;48.362;10.994;2022-11-15T11:31:26;10.70;99.90
6164;DHT22;3114;48.362;10.994;2022-11-15T11:34:01;10.70;99.90
6164;DHT22;3114;48.362;10.994;2022-11-15T11:36:37;10.80;99.90
6164;DHT22;3114;48.362;10.994;2022-11-15T11:39:19;10.80;99.90
6164;DHT22;3114;48.362;10.994;2022-11-15T11:41:57;10.80;99.90
6164;DHT22;3114;48.362;10.994;2022-11-15T11:44:33;10.90;99.90
6164;DHT22;3114;48.362;10.994;2022-11-15T11:47:06;10.90;99.90
6164;DHT22;3114;48.362;10.994;2022-11-15T11:49:41;11.00;99.90
6164;DHT22;3114;48.362;10.994;2022-11-15T11:52:19;11.40;99.90
6164;DHT22;3114;48.362;10.994;2022-11-15T11:54:56;11.20;99.90
6164;DHT22;3114;48.362;10.994;2022-11-15T11:57:31;11.30;99.90
6164;DHT22;3114;48.362;10.994;2022-11-15T12:00:09;11.70;99.90
6164;DHT22;3114;48.362;10.994;2022-11-15T12:02:43;11.50;99.90
6164;DHT22;3114;48.362;10.994;2022-11-15T12:05:16;11.90;99.90
6164;DHT22;3114;48.362;10.994;2022-11-15T12:07:46;11.30;99.90
6164;DHT22;3114;48.362;10.994;2022-11-15T12:10:19;11.60;99.90
6164;DHT22;3114;48.362;10.994;2022-11-15T12:12:54;11.70;99.90
6164;DHT22;3114;48.362;10.994;2022-11-15T12:15:24;11.40;99.90
6164;DHT22;3114;48.362;10.994;2022-11-15T12:17:55;12.50;99.90
6164;DHT22;3114;48.362;10.994;2022-11-15T12:20:23;11.90;99.90
6164;DHT22;3114;48.362;10.994;2022-11-15T12:23:07;11.70;99.90
6164;DHT22;3114;48.362;10.994;2022-11-15T12:25:44;11.70;99.90
6164;DHT22;3114;48.362;10.994;2022-11-15T12:28:16;11.80;99.90
6164;DHT22;3114;48.362;10.994;2022-11-15T12:30:49;11.70;99.90
6164;DHT22;3114;48.362;10.994;2022-11-15T12:33:34;11.80;99.90
6164;DHT22;3114;48.362;10.994;2022-11-15T12:36:11;11.80;99.90
6164;DHT22;3114;48.362;10.994;2022-11-15T12:38:56;11.80;99.90
6164;DHT22;3114;48.362;10.994;2022-11-15T12:41:25;11.90;99.90
6164;DHT22;3114;48.362;10.994;2022-11-15T12:43:52;11.80;99.90
6164;DHT22;3114;48.362;10.994;2022-11-15T12:46:22;11.80;99.90
6164;DHT22;3114;48.362;10.994;2022-11-15T12:48:54;11.80;99.90
6164;DHT22;3114;48.362;10.994;2022-11-15T12:57:31;12.30;99.90
6164;DHT22;3114;48.362;10.994;2022-11-15T13:00:00;12.20;99.90
6164;DHT22;3114;48.362;10.994;2022-11-15T13:02:30;12.30;99.90
6164;DHT22;3114;48.362;10.994;2022-11-15T13:08:38;12.30;99.90
6164;DHT22;3114;48.362;10.994;2022-11-15T13:14:44;12.90;99.90
6164;DHT22;3114;48.362;10.994;2022-11-15T13:17:30;13.40;99.90
6164;DHT22;3114;48.362;10.994;2022-11-15T13:20:02;13.60;99.90
6164;DHT22;3114;48.362;10.994;2022-11-15T13:22:39;13.70;99.90
6164;DHT22;3114;48.362;10.994;2022-11-15T13:25:34;14.10;99.90
6164;DHT22;3114;48.362;10.994;2022-11-15T13:28:10;13.80;99.90
6164;DHT22;3114;48.362;10.994;2022-11-15T13:30:39;13.90;99.90
6164;DHT22;3114;48.362;10.994;2022-11-15T13:33:13;14.20;99.90
6164;DHT22;3114;48.362;10.994;2022-11-15T13:35:42;14.60;99.90
6164;DHT22;3114;48.362;10.994;2022-11-15T13:38:25;14.50;99.90
6164;DHT22;3114;48.362;10.994;2022-11-15T13:40:52;14.30;99.90
6164;DHT22;3114;48.362;10.994;2022-11-15T13:43:27;14.20;99.90
6164;DHT22;3114;48.362;10.994;2022-11-15T13:46:10;14.00;99.90
6164;DHT22;3114;48.362;10.994;2022-11-15T13:48:38;13.90;99.90
6164;DHT22;3114;48.362;10.994;2022-11-15T13:51:08;13.90;1.00
6164;DHT22;3114;48.362;10.994;2022-11-15T13:53:40;13.50;99.90
6164;DHT22;3114;48.362;10.994;2022-11-15T13:56:07;13.60;99.90
6164;DHT22;3114;48.362;10.994;2022-11-15T13:58:37;12.80;99.90
6164;DHT22;3114;48.362;10.994;2022-11-15T14:01:06;13.30;99.90
6164;DHT22;3114;48.362;10.994;2022-11-15T14:03:35;13.10;99.90
6164;DHT22;3114;48.362;10.994;2022-11-15T14:06:09;12.90;99.90
6164;DHT22;3114;48.362;10.994;2022-11-15T14:08:39;13.90;99.90
6164;DHT22;3114;48.362;10.994;2022-11-15T14:11:08;12.80;99.90
6164;DHT22;3114;48.362;10.994;2022-11-15T14:13:36;12.80;99.90
6164;DHT22;3114;48.362;10.994;2022-11-15T14:16:21;12.80;99.90
6164;DHT22;3114;48.362;10.994;2022-11-15T14:18:50;12.80;99.90
6164;DHT22;3114;48.362;10.994;2022-11-15T14:21:19;12.80;99.90
6164;DHT22;3114;48.362;10.994;2022-11-15T14:23:48;12.90;99.90
6164;DHT22;3114;48.362;10.994;2022-11-15T14:26:28;12.70;99.90
6164;DHT22;3114;48.362;10.994;2022-11-15T14:28:55;13.10;99.90
6164;DHT22;3114;48.362;10.994;2022-11-15T14:31:22;12.70;99.90
6164;DHT22;3114;48.362;10.994;2022-11-15T14:36:17;12.60;99.90
6164;DHT22;3114;48.362;10.994;2022-11-15T14:38:45;12.60;99.90
6164;DHT22;3114;48.362;10.994;2022-11-15T14:41:20;12.60;99.90
6164;DHT22;3114;48.362;10.994;2022-11-15T14:43:48;12.50;99.90
6164;DHT22;3114;48.362;10.994;2022-11-15T14:46:15;12.40;99.90
6164;DHT22;3114;48.362;10.994;2022-11-15T14:48:41;12.40;99.90
6164;DHT22;3114;48.362;10.994;2022-11-15T14:51:13;12.90;99.90
6164;DHT22;3114;48.362;10.994;2022-11-15T14:53:40;12.50;99.90
6164;DHT22;3114;48.362;10.994;2022-11-15T14:56:08;12.50;99.90
6164;DHT22;3114;48.362;10.994;2022-11-15T14:58:36;12.80;99.90
6164;DHT22;3114;48.362;10.994;2022-11-15T15:01:11;12.50;99.90
6164;DHT22;3114;48.362;10.994;2022-11-15T15:03:38;12.40;99.90
6164;DHT22;3114;48.362;10.994;2022-11-15T15:06:05;12.30;99.90
6164;DHT22;3114;48.362;10.994;2022-11-15T15:08:33;10.50;99.90
6164;DHT22;3114;48.362;10.994;2022-11-15T15:11:00;12.40;1.00
6164;DHT22;3114;48.362;10.994;2022-11-15T15:13:27;12.20;99.90
6164;DHT22;3114;48.362;10.994;2022-11-15T15:15:57;13.10;99.90
6164;DHT22;3114;48.362;10.994;2022-11-15T15:18:23;12.20;99.90
6164;DHT22;3114;48.362;10.994;2022-11-15T15:20:55;12.70;99.90
6164;DHT22;3114;48.362;10.994;2022-11-15T15:23:23;11.60;1.00
6164;DHT22;3114;48.362;10.994;2022-11-15T15:25:51;11.70;99.90
6164;DHT22;3114;48.362;10.994;2022-11-15T15:28:18;11.40;1.00
6164;DHT22;3114;48.362;10.994;2022-11-15T15:30:47;12.00;99.90
6164;DHT22;3114;48.362;10.994;2022-11-15T15:33:16;11.80;99.90
6164;DHT22;3114;48.362;10.994;2022-11-15T15:35:43;11.90;99.90
6164;DHT22;3114;48.362;10.994;2022-11-15T15:38:11;11.90;99.90
6164;DHT22;3114;48.362;10.994;2022-11-15T15:40:38;11.90;99.90
6164;DHT22;3114;48.362;10.994;2022-11-15T15:43:05;11.80;99.90
6164;DHT22;3114;48.362;10.994;2022-11-15T15:45:36;11.70;99.90
6164;DHT22;3114;48.362;10.994;2022-11-15T15:48:04;11.30;99.90
6164;DHT22;3114;48.362;10.994;2022-11-15T15:50:34;11.20;99.90
6164;DHT22;3114;48.362;10.994;2022-11-15T15:53:03;11.60;99.90
6164;DHT22;3114;48.362;10.994;2022-11-15T15:55:30;11.60;99.90
6164;DHT22;3114;48.362;10.994;2022-11-15T15:57:57;11.50;99.90
6164;DHT22;3114;48.362;10.994;2022-11-15T16:00:25;11.60;99.90
6164;DHT22;3114;48.362;10.994;2022-11-15T16:02:53;11.60;99.90
6164;DHT22;3114;48.362;10.994;2022-11-15T16:05:20;11.60;99.90
6164;DHT22;3114;48.362;10.994;2022-11-15T16:07:49;11.50;99.90
6164;DHT22;3114;48.362;10.994;2022-11-15T16:10:19;11.50;99.90
6164;DHT22;3114;48.362;10.994;2022-11-15T16:12:47;11.50;1.00
6164;DHT22;3114;48.362;10.994;2022-11-15T16:15:14;11.50;99.90
6164;DHT22;3114;48.362;10.994;2022-11-15T16:17:44;11.50;99.90
6164;DHT22;3114;48.362;10.994;2022-11-15T16:20:30;11.50;99.90
6164;DHT22;3114;48.362;10.994;2022-11-15T16:23:00;11.40;99.90
6164;DHT22;3114;48.362;10.994;2022-11-15T16:25:27;11.30;99.90
6164;DHT22;3114;48.362;10.994;2022-11-15T16:27:54;12.00;99.90
6164;DHT22;3114;48.362;10.994;2022-11-15T16:30:22;11.40;99.90
6164;DHT22;3114;48.362;10.994;2022-11-15T16:32:49;11.40;99.90
6164;DHT22;3114;48.362;10.994;2022-11-15T16:35:17;11.30;99.90
6164;DHT22;3114;48.362;10.994;2022-11-15T16:37:44;11.40;99.90
6164;DHT22;3114;48.362;10.994;2022-11-15T16:40:26;11.20;99.90